createdAt,value
2017-05-14T00:00:38.549Z,12.29
2017-05-14T00:01:39.187Z,12.25
2017-05-14T00:02:39.803Z,12.27
2017-05-14T00:03:40.417Z,12.19
2017-05-14T00:04:41.005Z,12.10
2017-05-14T00:05:41.603Z,12.04
2017-05-14T00:06:42.219Z,12.01
2017-05-14T00:07:42.833Z,11.93
2017-05-14T00:08:43.443Z,11.98
2017-05-14T00:09:44.041Z,11.90
2017-05-14T00:10:44.650Z,11.93
2017-05-14T00:11:45.297Z,11.91
2017-05-14T00:12:45.905Z,12.10
2017-05-14T00:13:46.518Z,12.06
2017-05-14T00:14:47.123Z,12.04
2017-05-14T00:15:47.734Z,12.04
2017-05-14T00:16:48.346Z,12.06
2017-05-14T00:17:48.944Z,12.04
2017-05-14T00:18:49.558Z,12.09
2017-05-14T00:19:50.173Z,12.13
2017-05-14T00:20:50.785Z,12.13
2017-05-14T00:21:51.445Z,12.09
2017-05-14T00:22:52.057Z,12.09
2017-05-14T00:23:52.660Z,12.06
2017-05-14T00:24:53.255Z,12.09
2017-05-14T00:25:53.866Z,12.03
2017-05-14T00:26:54.531Z,12.07
2017-05-14T00:27:55.140Z,12.10
2017-05-14T00:28:55.751Z,12.16
2017-05-14T00:29:56.360Z,12.11
2017-05-14T00:30:56.968Z,12.11
2017-05-14T00:31:57.576Z,12.11
2017-05-14T00:32:58.181Z,12.13
2017-05-14T00:33:58.782Z,12.07
2017-05-14T00:34:59.393Z,12.10
2017-05-14T00:36:00.003Z,12.03
2017-05-14T00:37:00.602Z,11.98
2017-05-14T00:38:01.204Z,12.09
2017-05-14T00:39:01.804Z,12.06
2017-05-14T00:40:02.412Z,12.07
2017-05-14T00:41:03.022Z,12.00
2017-05-14T00:42:03.634Z,12.03
2017-05-14T00:43:04.232Z,11.93
2017-05-14T00:44:04.899Z,11.98
2017-05-14T00:45:05.511Z,12.09
2017-05-14T00:46:06.112Z,12.07
2017-05-14T00:47:06.710Z,12.13
2017-05-14T00:48:07.326Z,12.01
2017-05-14T00:49:07.984Z,11.96
2017-05-14T00:50:08.578Z,12.04
2017-05-14T00:51:09.173Z,12.04
2017-05-14T00:52:09.769Z,12.06
2017-05-14T00:53:10.366Z,12.09
2017-05-14T00:54:10.977Z,12.09
2017-05-14T00:55:11.588Z,12.16
2017-05-14T00:56:12.193Z,12.22
2017-05-14T00:57:12.802Z,12.14
2017-05-14T00:58:13.398Z,12.19
2017-05-14T00:59:14.059Z,12.22
2017-05-14T01:00:14.659Z,12.22
2017-05-14T01:01:15.256Z,12.29
2017-05-14T01:02:15.857Z,12.27
2017-05-14T01:03:16.467Z,12.25
2017-05-14T01:04:17.120Z,12.31
2017-05-14T01:05:17.718Z,12.31
2017-05-14T01:06:18.331Z,12.29
2017-05-14T01:07:18.937Z,12.28
2017-05-14T01:08:19.547Z,12.34
2017-05-14T01:09:20.198Z,12.34
2017-05-14T01:10:20.798Z,12.32
2017-05-14T01:11:21.395Z,12.27
2017-05-14T01:12:22.005Z,12.37
2017-05-14T01:13:22.621Z,12.39
2017-05-14T01:14:23.282Z,12.35
2017-05-14T01:15:23.896Z,12.29
2017-05-14T01:16:24.507Z,12.40
2017-05-14T01:17:25.117Z,12.29
2017-05-14T01:18:25.723Z,12.34
2017-05-14T01:19:26.384Z,12.28
2017-05-14T01:20:26.991Z,12.31
2017-05-14T01:21:27.586Z,12.29
2017-05-14T01:22:28.184Z,12.31
2017-05-14T01:23:28.782Z,12.28
2017-05-14T01:24:29.393Z,12.34
2017-05-14T01:25:30.006Z,12.29
2017-05-14T01:26:30.617Z,12.37
2017-05-14T01:27:31.224Z,12.29
2017-05-14T01:28:31.832Z,12.39
2017-05-14T01:29:32.439Z,12.35
2017-05-14T01:30:33.043Z,12.32
2017-05-14T01:31:33.702Z,12.40
2017-05-14T01:32:34.302Z,12.39
2017-05-14T01:33:34.906Z,12.44
2017-05-14T01:34:35.513Z,12.47
2017-05-14T01:35:36.129Z,12.42
2017-05-14T01:36:36.790Z,12.37
2017-05-14T01:37:37.398Z,12.40
2017-05-14T01:38:38.005Z,12.34
2017-05-14T01:39:38.612Z,12.39
2017-05-14T01:40:39.219Z,12.34
2017-05-14T01:41:39.880Z,12.29
2017-05-14T01:42:40.494Z,12.27
2017-05-14T01:43:41.093Z,12.34
2017-05-14T01:44:41.688Z,12.28
2017-05-14T01:45:42.301Z,12.29
2017-05-14T01:46:42.948Z,12.14
2017-05-14T01:47:43.548Z,12.19
2017-05-14T01:48:44.160Z,12.22
2017-05-14T01:49:44.764Z,12.29
2017-05-14T01:50:45.364Z,12.28
2017-05-14T01:51:46.024Z,12.25
2017-05-14T01:52:46.635Z,12.24
2017-05-14T01:53:47.247Z,12.22
2017-05-14T01:54:47.844Z,12.28
2017-05-14T01:55:48.444Z,12.24
2017-05-14T01:56:49.048Z,12.24
2017-05-14T01:57:49.646Z,12.18
2017-05-14T01:58:50.262Z,12.28
2017-05-14T01:59:50.881Z,12.22
2017-05-14T02:00:51.476Z,12.32
2017-05-14T02:01:52.084Z,12.25
2017-05-14T02:02:52.680Z,12.22
2017-05-14T02:03:53.277Z,12.14
2017-05-14T02:04:53.873Z,12.19
2017-05-14T02:05:54.478Z,12.27
2017-05-14T02:06:55.073Z,12.14
2017-05-14T02:07:55.690Z,12.22
2017-05-14T02:08:56.280Z,12.18
2017-05-14T02:09:56.888Z,12.10
2017-05-14T02:10:57.485Z,12.10
2017-05-14T02:11:58.083Z,12.10
2017-05-14T02:12:58.695Z,12.10
2017-05-14T02:13:59.295Z,12.16
2017-05-14T02:14:59.903Z,12.13
2017-05-14T02:16:00.507Z,12.04
2017-05-14T02:17:01.115Z,12.11
2017-05-14T02:18:01.715Z,12.09
2017-05-14T02:19:02.327Z,12.11
2017-05-14T02:20:02.946Z,12.06
2017-05-14T02:21:03.554Z,12.00
2017-05-14T02:22:04.153Z,12.04
2017-05-14T02:23:04.766Z,12.07
2017-05-14T02:24:05.362Z,12.09
2017-05-14T02:25:05.960Z,12.03
2017-05-14T02:26:06.615Z,11.95
2017-05-14T02:27:07.223Z,11.98
2017-05-14T02:28:07.832Z,12.09
2017-05-14T02:29:08.445Z,12.00
2017-05-14T02:30:09.053Z,11.87
2017-05-14T02:31:09.699Z,11.88
2017-05-14T02:32:10.295Z,11.87
2017-05-14T02:33:10.906Z,11.90
2017-05-14T02:34:11.501Z,11.91
2017-05-14T02:35:12.111Z,11.87
2017-05-14T02:36:12.709Z,11.91
2017-05-14T02:37:13.304Z,11.87
2017-05-14T02:38:13.913Z,11.96
2017-05-14T02:39:14.562Z,11.90
2017-05-14T02:40:15.157Z,11.91
2017-05-14T02:41:15.771Z,11.88
2017-05-14T02:42:16.366Z,11.93
2017-05-14T02:43:16.962Z,12.01
2017-05-14T02:44:17.574Z,12.00
2017-05-14T02:45:18.173Z,11.96
2017-05-14T02:46:18.768Z,11.90
2017-05-14T02:47:19.369Z,12.01
2017-05-14T02:48:19.972Z,12.03
2017-05-14T02:49:20.579Z,12.00
2017-05-14T02:50:21.183Z,12.09
2017-05-14T02:51:21.791Z,12.13
2017-05-14T02:52:22.389Z,12.11
2017-05-14T02:53:22.988Z,12.13
2017-05-14T02:54:23.590Z,12.10
2017-05-14T02:55:24.192Z,12.13
2017-05-14T02:56:24.800Z,12.11
2017-05-14T02:57:25.408Z,12.11
2017-05-14T02:58:26.021Z,12.10
2017-05-14T02:59:26.643Z,12.14
2017-05-14T03:00:27.248Z,12.18
2017-05-14T03:01:27.853Z,12.19
2017-05-14T03:02:28.459Z,12.21
2017-05-14T03:03:29.068Z,12.27
2017-05-14T03:04:29.683Z,12.16
2017-05-14T03:05:30.280Z,12.16
2017-05-14T03:06:30.890Z,12.18
2017-05-14T03:07:31.499Z,12.18
2017-05-14T03:08:32.098Z,12.11
2017-05-14T03:09:32.698Z,12.03
2017-05-14T03:10:33.311Z,12.09
2017-05-14T03:11:33.921Z,12.09
2017-05-14T03:12:34.564Z,12.09
2017-05-14T03:13:35.133Z,12.07
2017-05-14T03:14:35.791Z,12.01
2017-05-14T03:15:36.403Z,12.06
2017-05-14T03:16:37.016Z,12.09
2017-05-14T03:17:37.620Z,12.06
2017-05-14T03:18:38.218Z,12.01
2017-05-14T03:19:38.832Z,12.10
2017-05-14T03:20:39.441Z,12.13
2017-05-14T03:21:40.039Z,12.16
2017-05-14T03:22:40.655Z,12.16
2017-05-14T03:23:41.264Z,12.10
2017-05-14T03:24:41.862Z,12.27
2017-05-14T03:25:42.475Z,12.24
2017-05-14T03:26:43.074Z,12.24
2017-05-14T03:27:43.685Z,12.28
2017-05-14T03:28:44.297Z,12.27
2017-05-14T03:29:44.963Z,12.27
2017-05-14T03:30:45.561Z,12.19
2017-05-14T03:31:46.189Z,12.16
2017-05-14T03:32:46.785Z,12.22
2017-05-14T03:33:47.383Z,12.25
2017-05-14T03:34:48.045Z,12.28
2017-05-14T03:35:48.642Z,12.25
2017-05-14T03:36:49.242Z,12.32
2017-05-14T03:37:49.850Z,12.24
2017-05-14T03:38:50.455Z,12.35
2017-05-14T03:39:51.065Z,12.34
2017-05-14T03:40:51.662Z,12.29
2017-05-14T03:41:52.263Z,12.42
2017-05-14T03:42:52.880Z,12.35
2017-05-14T03:43:53.490Z,12.35
2017-05-14T03:44:54.091Z,12.34
2017-05-14T03:45:54.697Z,12.42
2017-05-14T03:46:55.298Z,12.42
2017-05-14T03:47:55.894Z,12.44
2017-05-14T03:48:56.514Z,12.47
2017-05-14T03:49:57.106Z,12.43
2017-05-14T03:50:57.707Z,12.43
2017-05-14T03:51:58.312Z,12.40
2017-05-14T03:52:58.923Z,12.49
2017-05-14T03:53:59.526Z,12.40
2017-05-14T03:55:00.135Z,12.44
2017-05-14T03:56:00.736Z,12.46
2017-05-14T03:57:01.349Z,12.44
2017-05-14T03:58:01.951Z,12.50
2017-05-14T03:59:02.563Z,12.43
2017-05-14T04:00:03.214Z,12.49
2017-05-14T04:01:03.825Z,12.50
2017-05-14T04:02:04.433Z,12.50
2017-05-14T04:03:05.040Z,12.57
2017-05-14T04:04:05.651Z,12.53
2017-05-14T04:05:06.262Z,12.52
2017-05-14T04:06:06.915Z,12.55
2017-05-14T04:07:07.529Z,12.49
2017-05-14T04:08:08.141Z,12.46
2017-05-14T04:09:08.754Z,12.53
2017-05-14T04:10:09.355Z,12.55
2017-05-14T04:11:10.007Z,12.65
2017-05-14T04:12:10.621Z,12.76
2017-05-14T04:13:11.236Z,12.68
2017-05-14T04:14:11.839Z,12.69
2017-05-14T04:15:12.442Z,12.69
2017-05-14T04:16:13.045Z,12.76
2017-05-14T04:17:13.639Z,12.72
2017-05-14T04:18:14.253Z,12.68
2017-05-14T04:19:14.869Z,12.75
2017-05-14T04:20:15.483Z,12.75
2017-05-14T04:21:16.098Z,12.83
2017-05-14T04:22:16.716Z,12.75
2017-05-14T04:23:17.368Z,12.64
2017-05-14T04:24:17.973Z,12.64
2017-05-14T04:25:18.585Z,12.69
2017-05-14T04:26:19.197Z,12.68
2017-05-14T04:27:19.808Z,12.61
2017-05-14T04:28:20.430Z,12.69
2017-05-14T04:29:21.043Z,12.69
2017-05-14T04:30:21.658Z,12.65
2017-05-14T04:31:22.259Z,12.67
2017-05-14T04:32:22.875Z,12.61
2017-05-14T04:33:23.539Z,12.60
2017-05-14T04:34:24.151Z,12.62
2017-05-14T04:35:24.753Z,12.72
2017-05-14T04:36:25.358Z,12.67
2017-05-14T04:37:25.960Z,12.68
2017-05-14T04:38:26.610Z,12.72
2017-05-14T04:39:27.225Z,12.72
2017-05-14T04:40:27.826Z,12.76
2017-05-14T04:41:28.442Z,12.71
2017-05-14T04:42:29.061Z,12.79
2017-05-14T04:43:29.661Z,12.76
2017-05-14T04:44:30.265Z,12.76
2017-05-14T04:45:30.880Z,12.79
2017-05-14T04:46:31.493Z,12.77
2017-05-14T04:47:32.113Z,12.90
2017-05-14T04:48:32.730Z,13.13
2017-05-14T04:49:33.349Z,13.36
2017-05-14T04:50:33.954Z,13.84
2017-05-14T04:51:34.568Z,14.47
2017-05-14T04:52:35.171Z,15.25
2017-05-14T04:53:35.788Z,15.58
2017-05-14T04:54:36.407Z,15.99
2017-05-14T04:55:37.027Z,16.31
2017-05-14T04:56:37.681Z,16.66
2017-05-14T04:57:38.293Z,16.58
2017-05-14T04:58:38.918Z,16.42
2017-05-14T04:59:39.528Z,16.43
2017-05-14T05:00:40.150Z,16.31
2017-05-14T05:01:40.771Z,16.01
2017-05-14T05:02:41.384Z,15.92
2017-05-14T05:03:42.002Z,15.64
2017-05-14T05:04:42.610Z,15.99
2017-05-14T05:05:43.214Z,16.76
2017-05-14T05:06:43.872Z,16.86
2017-05-14T05:07:44.479Z,16.60
2017-05-14T05:08:45.097Z,16.49
2017-05-14T05:09:45.765Z,16.33
2017-05-14T05:10:46.339Z,17.01
2017-05-14T05:11:46.972Z,17.52
2017-05-14T05:12:47.578Z,18.18
2017-05-14T05:13:48.193Z,18.68
2017-05-14T05:14:48.811Z,18.99
2017-05-14T05:15:49.433Z,19.15
2017-05-14T05:16:50.103Z,19.44
2017-05-14T05:17:50.723Z,19.70
2017-05-14T05:18:51.354Z,19.70
2017-05-14T05:19:51.971Z,20.13
2017-05-14T05:20:52.582Z,20.36
2017-05-14T05:21:53.193Z,20.24
2017-05-14T05:22:53.814Z,20.62
2017-05-14T05:23:54.436Z,20.82
2017-05-14T05:24:55.110Z,21.20
2017-05-14T05:25:55.729Z,21.12
2017-05-14T05:26:56.343Z,20.73
2017-05-14T05:27:56.967Z,20.32
2017-05-14T05:28:57.587Z,20.02
2017-05-14T05:29:58.262Z,19.66
2017-05-14T05:30:58.879Z,19.47
2017-05-14T05:31:59.510Z,19.37
2017-05-14T05:33:00.138Z,19.40
2017-05-14T05:34:00.759Z,19.29
2017-05-14T05:35:01.384Z,19.33
2017-05-14T05:36:02.018Z,19.27
2017-05-14T05:37:02.634Z,19.25
2017-05-14T05:38:03.264Z,19.39
2017-05-14T05:39:03.902Z,19.73
2017-05-14T05:40:04.520Z,19.81
2017-05-14T05:41:05.192Z,19.77
2017-05-14T05:42:05.778Z,19.85
2017-05-14T05:43:06.405Z,20.14
2017-05-14T05:44:07.033Z,20.69
2017-05-14T05:45:07.661Z,21.32
2017-05-14T05:46:08.336Z,21.93
2017-05-14T05:47:08.951Z,22.32
2017-05-14T05:48:09.577Z,22.47
2017-05-14T05:49:10.203Z,22.51
2017-05-14T05:50:10.821Z,22.99
2017-05-14T05:51:11.493Z,23.37
2017-05-14T05:52:12.122Z,23.49
2017-05-14T05:53:12.739Z,23.62
2017-05-14T05:54:13.360Z,24.01
2017-05-14T05:55:13.992Z,24.17
2017-05-14T05:56:14.616Z,24.33
2017-05-14T05:57:15.236Z,24.83
2017-05-14T05:58:15.865Z,25.06
2017-05-14T05:59:16.480Z,24.73
2017-05-14T06:00:17.104Z,24.39
2017-05-14T06:01:17.741Z,24.41
2017-05-14T06:02:18.367Z,24.94
2017-05-14T06:03:18.996Z,25.47
2017-05-14T06:04:19.617Z,25.62
2017-05-14T06:05:20.247Z,25.46
2017-05-14T06:06:20.877Z,25.58
2017-05-14T06:07:21.496Z,25.65
2017-05-14T06:08:22.126Z,26.13
2017-05-14T06:09:22.753Z,26.41
2017-05-14T06:10:23.377Z,26.76
2017-05-14T06:11:24.059Z,26.74
2017-05-14T06:12:24.690Z,26.87
2017-05-14T06:13:25.315Z,27.08
2017-05-14T06:14:25.948Z,27.42
2017-05-14T06:15:26.566Z,27.68
2017-05-14T06:16:27.244Z,27.76
2017-05-14T06:17:27.884Z,27.29
2017-05-14T06:18:28.515Z,27.05
2017-05-14T06:19:29.148Z,26.93
2017-05-14T06:20:29.767Z,26.56
2017-05-14T06:21:30.399Z,26.65
2017-05-14T06:22:31.019Z,26.62
2017-05-14T06:23:31.649Z,26.48
2017-05-14T06:24:32.282Z,26.08
2017-05-14T06:25:32.902Z,25.73
2017-05-14T06:26:33.585Z,25.16
2017-05-14T06:27:34.216Z,25.06
2017-05-14T06:28:34.832Z,24.68
2017-05-14T06:29:35.458Z,24.58
2017-05-14T06:30:36.086Z,24.39
2017-05-14T06:31:36.703Z,24.95
2017-05-14T06:32:37.329Z,25.53
2017-05-14T06:33:37.956Z,25.69
2017-05-14T06:34:38.584Z,25.33
2017-05-14T06:35:39.201Z,25.11
2017-05-14T06:36:39.821Z,24.73
2017-05-14T06:37:40.458Z,24.23
2017-05-14T06:38:41.084Z,23.91
2017-05-14T06:39:41.713Z,23.66
2017-05-14T06:40:42.332Z,23.53
2017-05-14T06:41:42.950Z,23.43
2017-05-14T06:42:43.579Z,23.25
2017-05-14T06:43:44.211Z,22.95
2017-05-14T06:44:44.835Z,22.91
2017-05-14T06:45:45.458Z,22.94
2017-05-14T06:46:46.076Z,22.65
2017-05-14T06:47:46.699Z,22.68
2017-05-14T06:48:47.331Z,22.55
2017-05-14T06:49:47.957Z,22.65
2017-05-14T06:50:48.582Z,22.50
2017-05-14T06:51:49.198Z,22.28
2017-05-14T06:52:49.875Z,22.21
2017-05-14T06:53:50.482Z,22.17
2017-05-14T06:54:51.100Z,22.07
2017-05-14T06:55:51.728Z,21.91
2017-05-14T06:56:52.351Z,21.86
2017-05-14T06:57:52.977Z,21.77
2017-05-14T06:58:53.600Z,21.76
2017-05-14T06:59:54.230Z,21.73
2017-05-14T07:00:54.840Z,22.05
2017-05-14T07:01:55.455Z,22.24
2017-05-14T07:02:56.137Z,22.51
2017-05-14T07:03:56.754Z,22.69
2017-05-14T07:04:57.380Z,22.75
2017-05-14T07:05:57.998Z,22.50
2017-05-14T07:06:58.608Z,22.68
2017-05-14T07:07:59.223Z,22.54
2017-05-14T07:08:59.839Z,22.42
2017-05-14T07:10:00.467Z,22.08
2017-05-14T07:11:01.079Z,22.03
2017-05-14T07:12:01.703Z,21.93
2017-05-14T07:13:02.340Z,21.89
2017-05-14T07:14:02.966Z,21.98
2017-05-14T07:15:03.594Z,21.91
2017-05-14T07:16:04.221Z,21.89
2017-05-14T07:17:04.848Z,21.92
2017-05-14T07:18:05.515Z,21.93
2017-05-14T07:19:06.140Z,21.83
2017-05-14T07:20:06.764Z,21.67
2017-05-14T07:21:07.393Z,21.61
2017-05-14T07:22:08.020Z,21.75
2017-05-14T07:23:08.647Z,21.86
2017-05-14T07:24:09.272Z,22.02
2017-05-14T07:25:09.887Z,22.10
2017-05-14T07:26:10.518Z,22.28
2017-05-14T07:27:11.147Z,22.08
2017-05-14T07:28:11.774Z,22.03
2017-05-14T07:29:12.396Z,22.20
2017-05-14T07:30:13.010Z,22.33
2017-05-14T07:31:13.636Z,22.47
2017-05-14T07:32:14.312Z,22.50
2017-05-14T07:33:14.937Z,22.53
2017-05-14T07:34:15.551Z,22.50
2017-05-14T07:35:16.175Z,22.48
2017-05-14T07:36:16.792Z,22.36
2017-05-14T07:37:17.401Z,22.28
2017-05-14T07:38:18.026Z,22.29
2017-05-14T07:39:18.647Z,22.24
2017-05-14T07:40:19.258Z,22.23
2017-05-14T07:41:19.888Z,22.29
2017-05-14T07:42:20.566Z,22.28
2017-05-14T07:43:21.190Z,22.02
2017-05-14T07:44:21.822Z,21.91
2017-05-14T07:45:22.452Z,21.91
2017-05-14T07:46:23.080Z,22.02
2017-05-14T07:47:23.759Z,22.02
2017-05-14T07:48:24.387Z,22.01
2017-05-14T07:49:25.009Z,21.93
2017-05-14T07:50:25.627Z,21.91
2017-05-14T07:51:26.252Z,21.89
2017-05-14T07:52:26.914Z,21.77
2017-05-14T07:53:27.539Z,21.82
2017-05-14T07:54:28.167Z,21.75
2017-05-14T07:55:28.777Z,21.82
2017-05-14T07:56:29.411Z,21.76
2017-05-14T07:57:30.085Z,21.70
2017-05-14T07:58:30.711Z,21.47
2017-05-14T07:59:31.338Z,21.28
2017-05-14T08:00:31.956Z,21.27
2017-05-14T08:01:32.567Z,21.22
2017-05-14T08:02:33.176Z,21.24
2017-05-14T08:03:33.786Z,21.18
2017-05-14T08:04:34.404Z,21.06
2017-05-14T08:05:35.019Z,20.96
2017-05-14T08:06:35.654Z,20.96
2017-05-14T08:07:36.263Z,20.99
2017-05-14T08:08:36.897Z,20.77
2017-05-14T08:09:37.522Z,20.78
2017-05-14T08:10:38.146Z,20.77
2017-05-14T08:11:38.765Z,20.54
2017-05-14T08:12:39.384Z,20.67
2017-05-14T08:13:39.992Z,20.81
2017-05-14T08:14:40.607Z,20.73
2017-05-14T08:15:41.230Z,20.67
2017-05-14T08:16:41.862Z,20.63
2017-05-14T08:17:42.484Z,20.65
2017-05-14T08:18:43.113Z,20.73
2017-05-14T08:19:43.731Z,20.78
2017-05-14T08:20:44.346Z,20.81
2017-05-14T08:21:44.975Z,20.69
2017-05-14T08:22:45.604Z,20.72
2017-05-14T08:23:46.223Z,20.90
2017-05-14T08:24:46.839Z,21.07
2017-05-14T08:25:47.478Z,20.85
2017-05-14T08:26:48.134Z,20.96
2017-05-14T08:27:48.760Z,21.25
2017-05-14T08:28:49.385Z,21.45
2017-05-14T08:29:49.997Z,21.40
2017-05-14T08:30:50.625Z,21.61
2017-05-14T08:31:51.254Z,21.77
2017-05-14T08:32:51.874Z,21.93
2017-05-14T08:33:52.491Z,22.36
2017-05-14T08:34:53.118Z,22.57
2017-05-14T08:35:53.730Z,22.33
2017-05-14T08:36:54.358Z,22.83
2017-05-14T08:37:54.990Z,23.37
2017-05-14T08:38:55.620Z,23.81
2017-05-14T08:39:56.255Z,24.31
2017-05-14T08:40:56.877Z,24.64
2017-05-14T08:41:57.554Z,24.86
2017-05-14T08:42:58.193Z,24.96
2017-05-14T08:43:58.801Z,25.43
2017-05-14T08:44:59.416Z,25.46
2017-05-14T08:46:00.043Z,25.38
2017-05-14T08:47:00.673Z,25.43
2017-05-14T08:48:01.301Z,25.47
2017-05-14T08:49:01.917Z,25.51
2017-05-14T08:50:02.546Z,25.76
2017-05-14T08:51:03.175Z,26.00
2017-05-14T08:52:03.845Z,25.80
2017-05-14T08:53:04.460Z,25.61
2017-05-14T08:54:05.093Z,25.39
2017-05-14T08:55:05.710Z,25.35
2017-05-14T08:56:06.335Z,25.17
2017-05-14T08:57:07.017Z,25.21
2017-05-14T08:58:07.648Z,24.98
2017-05-14T08:59:08.277Z,24.86
2017-05-14T09:00:08.896Z,25.07
2017-05-14T09:01:09.514Z,24.92
2017-05-14T09:02:10.147Z,24.69
2017-05-14T09:03:10.780Z,24.48
2017-05-14T09:04:11.388Z,24.36
2017-05-14T09:05:12.010Z,24.23
2017-05-14T09:06:12.638Z,23.77
2017-05-14T09:07:13.268Z,23.76
2017-05-14T09:08:13.887Z,23.94
2017-05-14T09:09:14.503Z,23.62
2017-05-14T09:10:15.123Z,23.27
2017-05-14T09:11:15.745Z,23.21
2017-05-14T09:12:16.370Z,23.10
2017-05-14T09:13:16.995Z,22.97
2017-05-14T09:14:17.605Z,22.78
2017-05-14T09:15:18.273Z,22.62
2017-05-14T09:16:18.899Z,22.65
2017-05-14T09:17:19.520Z,22.72
2017-05-14T09:18:20.146Z,23.13
2017-05-14T09:19:20.779Z,23.71
2017-05-14T09:20:21.452Z,24.08
2017-05-14T09:21:22.068Z,24.35
2017-05-14T09:22:22.686Z,24.48
2017-05-14T09:23:23.308Z,24.73
2017-05-14T09:24:23.922Z,24.86
2017-05-14T09:25:24.536Z,25.20
2017-05-14T09:26:25.243Z,25.31
2017-05-14T09:27:25.896Z,25.36
2017-05-14T09:28:26.521Z,25.36
2017-05-14T09:29:27.146Z,25.53
2017-05-14T09:30:27.769Z,25.47
2017-05-14T09:31:28.453Z,25.47
2017-05-14T09:32:29.082Z,25.75
2017-05-14T09:33:29.712Z,25.76
2017-05-14T09:34:30.337Z,25.78
2017-05-14T09:35:30.957Z,25.68
2017-05-14T09:36:31.590Z,25.13
2017-05-14T09:37:32.211Z,24.95
2017-05-14T09:38:32.837Z,24.94
2017-05-14T09:39:33.453Z,24.51
2017-05-14T09:40:34.072Z,24.58
2017-05-14T09:41:34.748Z,24.58
2017-05-14T09:42:35.375Z,24.56
2017-05-14T09:43:36.001Z,24.51
2017-05-14T09:44:36.621Z,24.61
2017-05-14T09:45:37.251Z,24.66
2017-05-14T09:46:37.921Z,24.95
2017-05-14T09:47:38.554Z,25.58
2017-05-14T09:48:39.172Z,26.26
2017-05-14T09:49:39.788Z,26.19
2017-05-14T09:50:40.417Z,26.12
2017-05-14T09:51:41.092Z,26.46
2017-05-14T09:52:41.726Z,26.51
2017-05-14T09:53:42.356Z,26.59
2017-05-14T09:54:42.990Z,26.68
2017-05-14T09:55:43.602Z,26.93
2017-05-14T09:56:44.283Z,26.88
2017-05-14T09:57:44.917Z,26.99
2017-05-14T09:58:45.552Z,27.05
2017-05-14T09:59:46.179Z,27.02
2017-05-14T10:00:46.801Z,26.99
2017-05-14T10:01:47.421Z,27.02
2017-05-14T10:02:48.053Z,27.03
2017-05-14T10:03:48.675Z,27.32
2017-05-14T10:04:49.297Z,27.89
2017-05-14T10:05:49.914Z,28.20
2017-05-14T10:06:50.538Z,28.42
2017-05-14T10:07:51.181Z,28.57
2017-05-14T10:08:51.802Z,28.89
2017-05-14T10:09:52.424Z,28.63
2017-05-14T10:10:53.044Z,28.92
2017-05-14T10:11:53.668Z,28.65
2017-05-14T10:12:54.302Z,28.51
2017-05-14T10:13:54.927Z,28.67
2017-05-14T10:14:55.553Z,28.23
2017-05-14T10:15:56.185Z,28.03
2017-05-14T10:16:56.811Z,28.14
2017-05-14T10:17:57.441Z,27.80
2017-05-14T10:18:58.080Z,28.13
2017-05-14T10:19:58.713Z,28.23
2017-05-14T10:20:59.339Z,27.81
2017-05-14T10:22:00.024Z,27.81
2017-05-14T10:23:00.644Z,28.08
2017-05-14T10:24:01.272Z,28.22
2017-05-14T10:25:01.890Z,27.99
2017-05-14T10:26:02.517Z,27.77
2017-05-14T10:27:03.140Z,27.96
2017-05-14T10:28:03.762Z,28.07
2017-05-14T10:29:04.393Z,28.17
2017-05-14T10:30:05.018Z,27.99
2017-05-14T10:31:05.667Z,27.86
2017-05-14T10:32:06.276Z,27.45
2017-05-14T10:33:06.910Z,27.63
2017-05-14T10:34:07.534Z,27.58
2017-05-14T10:35:08.170Z,27.51
2017-05-14T10:36:08.829Z,27.43
2017-05-14T10:37:09.459Z,27.59
2017-05-14T10:38:10.089Z,27.63
2017-05-14T10:39:10.708Z,27.71
2017-05-14T10:40:11.329Z,27.86
2017-05-14T10:41:11.962Z,27.96
2017-05-14T10:42:12.594Z,28.07
2017-05-14T10:43:13.215Z,28.13
2017-05-14T10:44:13.836Z,27.80
2017-05-14T10:45:14.468Z,27.99
2017-05-14T10:46:15.152Z,27.86
2017-05-14T10:47:15.778Z,27.95
2017-05-14T10:48:16.411Z,27.99
2017-05-14T10:49:17.033Z,27.88
2017-05-14T10:50:17.658Z,27.85
2017-05-14T10:51:18.294Z,27.98
2017-05-14T10:52:18.929Z,27.96
2017-05-14T10:53:19.567Z,27.78
2017-05-14T10:54:20.190Z,28.13
2017-05-14T10:55:20.811Z,28.29
2017-05-14T10:56:21.481Z,28.42
2017-05-14T10:57:22.117Z,28.51
2017-05-14T10:58:22.757Z,28.67
2017-05-14T10:59:23.381Z,28.69
2017-05-14T11:00:24.001Z,28.65
2017-05-14T11:01:24.683Z,28.66
2017-05-14T11:02:25.304Z,28.72
2017-05-14T11:03:25.931Z,28.72
2017-05-14T11:04:26.565Z,28.79
2017-05-14T11:05:27.199Z,29.15
2017-05-14T11:06:27.834Z,29.15
2017-05-14T11:07:28.453Z,29.15
2017-05-14T11:08:29.086Z,28.89
2017-05-14T11:09:29.719Z,28.41
2017-05-14T11:10:30.348Z,27.99
2017-05-14T11:11:31.020Z,27.63
2017-05-14T11:12:31.648Z,27.63
2017-05-14T11:13:32.281Z,27.90
2017-05-14T11:14:32.902Z,28.25
2017-05-14T11:15:33.523Z,28.40
2017-05-14T11:16:34.199Z,28.42
2017-05-14T11:17:34.822Z,28.84
2017-05-14T11:18:35.451Z,28.91
2017-05-14T11:19:36.085Z,28.82
2017-05-14T11:20:36.716Z,28.78
2017-05-14T11:21:37.401Z,28.79
2017-05-14T11:22:38.021Z,29.10
2017-05-14T11:23:38.652Z,28.84
2017-05-14T11:24:39.289Z,28.75
2017-05-14T11:25:39.923Z,29.11
2017-05-14T11:26:40.546Z,29.25
2017-05-14T11:27:41.183Z,29.37
2017-05-14T11:28:41.807Z,29.35
2017-05-14T11:29:42.441Z,29.53
2017-05-14T11:30:43.075Z,29.81
2017-05-14T11:31:43.766Z,30.19
2017-05-14T11:32:44.398Z,30.30
2017-05-14T11:33:45.035Z,30.49
2017-05-14T11:34:45.659Z,30.43
2017-05-14T11:35:46.281Z,30.35
2017-05-14T11:36:46.965Z,30.15
2017-05-14T11:37:47.602Z,29.57
2017-05-14T11:38:48.235Z,29.44
2017-05-14T11:39:48.868Z,29.52
2017-05-14T11:40:49.484Z,29.53
2017-05-14T11:41:50.102Z,29.34
2017-05-14T11:42:50.722Z,29.17
2017-05-14T11:43:51.354Z,29.53
2017-05-14T11:44:51.976Z,29.72
2017-05-14T11:45:52.608Z,29.69
2017-05-14T11:46:53.240Z,29.90
2017-05-14T11:47:53.874Z,29.63
2017-05-14T11:48:54.494Z,29.08
2017-05-14T11:49:55.118Z,28.79
2017-05-14T11:50:55.751Z,28.94
2017-05-14T11:51:56.370Z,29.05
2017-05-14T11:52:57.002Z,28.87
2017-05-14T11:53:57.630Z,28.66
2017-05-14T11:54:58.249Z,28.55
2017-05-14T11:55:58.875Z,28.26
2017-05-14T11:56:59.508Z,28.29
2017-05-14T11:58:00.140Z,28.22
2017-05-14T11:59:00.772Z,28.18
2017-05-14T12:00:01.404Z,27.81
2017-05-14T12:01:02.035Z,27.48
2017-05-14T12:02:02.682Z,27.28
2017-05-14T12:03:03.325Z,27.06
2017-05-14T12:04:03.954Z,26.74
2017-05-14T12:05:04.568Z,26.69
2017-05-14T12:06:05.189Z,26.28
2017-05-14T12:07:05.800Z,26.40
2017-05-14T12:08:06.451Z,26.31
2017-05-14T12:09:07.128Z,26.26
2017-05-14T12:10:07.743Z,26.13
2017-05-14T12:11:08.362Z,25.78
2017-05-14T12:12:08.989Z,25.87
2017-05-14T12:13:09.629Z,25.91
2017-05-14T12:14:10.307Z,25.76
2017-05-14T12:15:10.929Z,25.90
2017-05-14T12:16:11.551Z,26.16
2017-05-14T12:17:12.171Z,26.19
2017-05-14T12:18:12.796Z,26.18
2017-05-14T12:19:13.434Z,26.21
2017-05-14T12:20:14.051Z,26.26
2017-05-14T12:21:14.686Z,26.16
2017-05-14T12:22:15.311Z,26.26
2017-05-14T12:23:15.949Z,26.03
2017-05-14T12:24:16.569Z,26.00
2017-05-14T12:25:17.207Z,25.65
2017-05-14T12:26:17.830Z,25.50
2017-05-14T12:27:18.443Z,25.38
2017-05-14T12:28:19.073Z,25.13
2017-05-14T12:29:19.698Z,25.01
2017-05-14T12:30:20.310Z,25.07
2017-05-14T12:31:20.977Z,24.99
2017-05-14T12:32:21.554Z,25.11
2017-05-14T12:33:22.181Z,25.13
2017-05-14T12:34:22.888Z,25.26
2017-05-14T12:35:23.518Z,25.14
2017-05-14T12:36:24.128Z,25.17
2017-05-14T12:37:24.765Z,24.99
2017-05-14T12:38:25.410Z,25.02
2017-05-14T12:39:26.008Z,25.17
2017-05-14T12:40:26.623Z,25.21
2017-05-14T12:41:27.254Z,25.07
2017-05-14T12:42:27.886Z,25.04
2017-05-14T12:43:28.511Z,25.02
2017-05-14T12:44:29.193Z,25.04
2017-05-14T12:45:29.821Z,25.02
2017-05-14T12:46:30.452Z,25.25
2017-05-14T12:47:31.065Z,25.73
2017-05-14T12:48:31.685Z,26.13
2017-05-14T12:49:32.364Z,26.10
2017-05-14T12:50:32.990Z,25.98
2017-05-14T12:51:33.607Z,26.13
2017-05-14T12:52:34.239Z,26.25
2017-05-14T12:53:34.868Z,26.16
2017-05-14T12:54:35.501Z,25.95
2017-05-14T12:55:36.128Z,26.00
2017-05-14T12:56:36.754Z,25.81
2017-05-14T12:57:37.382Z,25.76
2017-05-14T12:58:37.994Z,25.53
2017-05-14T12:59:38.668Z,25.35
2017-05-14T13:00:39.293Z,24.98